Time;durP1;ratioP1;P1;durP2;ratioP2;P2;SDS_P1;SDS_P2;PMS_P1;PMS_P2;Temp;Humidity;BMP_temperature;BMP_pressure;BME280_temperature;BME280_humidity;BME280_pressure;Samples;Min_cycle;Max_cycle;Signal;HPM_P1;HPM_P2
2021/06/21 00:02:23;;;;;;;;;;;24.90;94.60;;;;;;5107653;28;19969;-54
2021/06/21 00:04:50;;;;;;;;;;;24.90;94.60;;;;;;5107773;28;20133;-53
2021/06/21 00:07:16;;;;;;;;;;;25.00;94.50;;;;;;5107490;28;19964;-56
2021/06/21 00:09:43;;;;;;;;;;;25.00;94.50;;;;;;5107831;28;19912;-54
2021/06/21 00:12:10;;;;;;;;;;;25.00;94.50;;;;;;5107323;28;20248;-53
2021/06/21 00:14:36;;;;;;;;;;;25.00;94.50;;;;;;5107375;28;19943;-53
2021/06/21 00:17:03;;;;;;;;;;;25.00;94.40;;;;;;5107421;28;19971;-56
2021/06/21 00:19:29;;;;;;;;;;;25.00;94.40;;;;;;5107479;28;20134;-54
2021/06/21 00:21:56;;;;;;;;;;;25.00;94.40;;;;;;5107158;28;19940;-57
2021/06/21 00:24:22;;;;;;;;;;;25.00;94.40;;;;;;5106187;28;19915;-51
2021/06/21 00:26:48;;;;;;;;;;;25.00;94.40;;;;;;5107147;28;19938;-54
2021/06/21 00:29:14;;;;;;;;;;;25.00;94.40;;;;;;5106055;28;19912;-54
2021/06/21 00:31:41;;;;;;;;;;;25.00;94.40;;;;;;5105962;28;19905;-54
2021/06/21 00:34:08;;;;;;;;;;;25.00;94.40;;;;;;5107095;28;20097;-53
2021/06/21 00:36:34;;;;;;;;;;;25.00;94.30;;;;;;5106905;28;19904;-56
2021/06/21 00:39:00;;;;;;;;;;;25.00;94.30;;;;;;5105941;28;19912;-55
2021/06/21 00:41:30;;;;;;;;;;;25.00;94.30;;;;;;5106532;28;19911;-54
2021/06/21 00:43:56;;;;;;;;;;;25.00;94.30;;;;;;5106980;28;19912;-58
2021/06/21 00:46:22;;;;;;;;;;;25.00;94.30;;;;;;5106729;28;20086;-53
2021/06/21 00:48:48;;;;;;;;;;;25.00;94.30;;;;;;5106745;28;20188;-55
2021/06/21 00:51:15;;;;;;;;;;;25.00;94.30;;;;;;5106726;28;19932;-56
2021/06/21 00:53:42;;;;;;;;;;;25.00;94.30;;;;;;5106715;28;20160;-58
2021/06/21 00:56:08;;;;;;;;;;;25.00;94.30;;;;;;5106527;28;20193;-58
2021/06/21 00:58:36;;;;;;;;;;;25.00;94.20;;;;;;5106556;28;19912;-52
2021/06/21 01:01:06;;;;;;;;;;;25.00;94.20;;;;;;5105281;28;19927;-56
2021/06/21 01:03:32;;;;;;;;;;;25.00;94.20;;;;;;5106275;28;19978;-55
2021/06/21 01:05:58;;;;;;;;;;;25.00;94.30;;;;;;5106407;28;20204;-54
2021/06/21 01:08:24;;;;;;;;;;;25.00;94.20;;;;;;5106450;28;19904;-56
2021/06/21 01:10:52;;;;;;;;;;;24.90;94.20;;;;;;5106285;28;20185;-57
2021/06/21 01:13:28;;;;;;;;;;;24.90;94.20;;;;;;5106253;28;19919;-54
2021/06/21 01:15:57;;;;;;;;;;;24.90;94.20;;;;;;5105086;28;19936;-57
2021/06/21 01:18:26;;;;;;;;;;;24.90;94.20;;;;;;5106009;28;19904;-57
2021/06/21 01:21:11;;;;;;;;;;;25.00;94.30;;;;;;5106241;28;19904;-56
2021/06/21 01:23:56;;;;;;;;;;;25.00;94.30;;;;;;5105921;28;19919;-56
2021/06/21 01:26:31;;;;;;;;;;;24.90;94.30;;;;;;5105824;28;20165;-53
2021/06/21 01:29:17;;;;;;;;;;;24.90;94.40;;;;;;5106064;28;19975;-55
2021/06/21 01:31:52;;;;;;;;;;;24.90;94.50;;;;;;5106069;28;19907;-55
2021/06/21 01:34:19;;;;;;;;;;;24.90;94.50;;;;;;5105928;28;19916;-61
2021/06/21 01:36:47;;;;;;;;;;;24.90;94.50;;;;;;5105919;28;19904;-58
2021/06/21 01:39:14;;;;;;;;;;;24.90;94.50;;;;;;5105979;28;20165;-54
2021/06/21 01:41:44;;;;;;;;;;;24.90;94.50;;;;;;5105541;28;19962;-53
2021/06/21 01:44:11;;;;;;;;;;;24.90;94.50;;;;;;5105778;28;20246;-55
2021/06/21 01:46:39;;;;;;;;;;;24.90;94.50;;;;;;5105610;28;19916;-56
2021/06/21 01:49:08;;;;;;;;;;;24.90;94.50;;;;;;5105595;28;19965;-56
2021/06/21 01:51:36;;;;;;;;;;;24.90;94.60;;;;;;5105094;28;20100;-54
2021/06/21 01:54:03;;;;;;;;;;;24.90;94.50;;;;;;5105214;28;19912;-55
2021/06/21 01:56:30;;;;;;;;;;;24.90;94.50;;;;;;5104443;28;19915;-53
2021/06/21 01:58:58;;;;;;;;;;;24.90;94.50;;;;;;5105451;28;19957;-51
2021/06/21 02:01:25;;;;;;;;;;;24.90;94.60;;;;;;5105196;28;19971;-54
2021/06/21 02:03:53;;;;;;;;;;;24.90;94.50;;;;;;5105550;28;19991;-51
2021/06/21 02:06:20;;;;;;;;;;;24.90;94.50;;;;;;5105287;28;19904;-52
2021/06/21 02:08:49;;;;;;;;;;;24.90;94.60;;;;;;5105254;28;19913;-52
2021/06/21 02:11:16;;;;;;;;;;;24.80;94.60;;;;;;5105212;28;19971;-55
2021/06/21 02:13:43;;;;;;;;;;;24.80;94.60;;;;;;5105126;28;19912;-54
2021/06/21 02:16:10;;;;;;;;;;;24.80;94.50;;;;;;5105056;28;19904;-57
2021/06/21 02:18:37;;;;;;;;;;;24.80;94.50;;;;;;5105322;28;19919;-56
2021/06/21 02:21:03;;;;;;;;;;;24.80;94.50;;;;;;5104988;28;19926;-54
2021/06/21 02:23:30;;;;;;;;;;;24.80;94.40;;;;;;5103819;28;19909;-52
2021/06/21 02:25:57;;;;;;;;;;;24.80;94.40;;;;;;5105189;28;19916;-53
2021/06/21 02:28:24;;;;;;;;;;;24.80;94.50;;;;;;5104740;28;19912;-56
2021/06/21 02:30:51;;;;;;;;;;;24.80;94.50;;;;;;5104803;28;19923;-56
2021/06/21 02:33:18;;;;;;;;;;;24.80;94.40;;;;;;5104732;28;19912;-58
2021/06/21 02:35:45;;;;;;;;;;;24.80;94.40;;;;;;5104864;28;19963;-57
2021/06/21 02:38:11;;;;;;;;;;;24.80;94.30;;;;;;5104677;28;19907;-54
2021/06/21 02:40:38;;;;;;;;;;;24.80;94.30;;;;;;5104657;28;19911;-56
2021/06/21 02:43:04;;;;;;;;;;;24.80;94.30;;;;;;5104609;28;20200;-53
2021/06/21 02:45:31;;;;;;;;;;;24.80;94.30;;;;;;5104518;28;20155;-55
2021/06/21 02:47:57;;;;;;;;;;;24.80;94.20;;;;;;5103180;28;19994;-55
2021/06/21 02:50:23;;;;;;;;;;;24.80;94.20;;;;;;5104995;28;19912;-53
2021/06/21 02:53:01;;;;;;;;;;;24.80;94.20;;;;;;5104604;28;19904;-51
2021/06/21 02:55:28;;;;;;;;;;;24.80;94.20;;;;;;5105081;28;19947;-54
2021/06/21 02:58:12;;;;;;;;;;;24.80;94.20;;;;;;5104619;28;20185;-56
2021/06/21 03:00:40;;;;;;;;;;;24.70;94.20;;;;;;5104351;28;19957;-54
2021/06/21 03:03:07;;;;;;;;;;;24.70;94.10;;;;;;5103711;28;19904;-54
2021/06/21 03:05:34;;;;;;;;;;;24.70;94.10;;;;;;5105010;28;19912;-59
2021/06/21 03:08:01;;;;;;;;;;;24.80;94.10;;;;;;5104313;28;19940;-53
2021/06/21 03:10:29;;;;;;;;;;;24.80;94.10;;;;;;5104873;28;19913;-55
2021/06/21 03:12:56;;;;;;;;;;;24.80;94.20;;;;;;5104352;28;19905;-57
2021/06/21 03:15:25;;;;;;;;;;;24.80;94.20;;;;;;5104821;28;19912;-53
2021/06/21 03:17:52;;;;;;;;;;;24.70;94.20;;;;;;5104454;28;20024;-56
2021/06/21 03:20:19;;;;;;;;;;;24.70;94.20;;;;;;5104768;28;19957;-56
2021/06/21 03:22:46;;;;;;;;;;;24.70;94.20;;;;;;5104328;28;19919;-56
2021/06/21 03:25:13;;;;;;;;;;;24.70;94.20;;;;;;5104689;28;19916;-54
2021/06/21 03:27:39;;;;;;;;;;;24.70;94.20;;;;;;5104066;28;19989;-52
2021/06/21 03:30:15;;;;;;;;;;;24.60;94.20;;;;;;5104043;28;19919;-53
2021/06/21 03:32:42;;;;;;;;;;;24.60;94.20;;;;;;5104180;28;19904;-58
2021/06/21 03:35:10;;;;;;;;;;;24.70;94.10;;;;;;5104441;28;19971;-55
2021/06/21 03:37:36;;;;;;;;;;;24.70;94.10;;;;;;5104156;28;19950;-54
2021/06/21 03:40:03;;;;;;;;;;;24.60;94.00;;;;;;5104546;28;20204;-59
2021/06/21 03:42:29;;;;;;;;;;;24.70;94.00;;;;;;5103930;28;19908;-53
2021/06/21 03:44:57;;;;;;;;;;;24.60;94.00;;;;;;5104426;28;19918;-55
2021/06/21 03:47:24;;;;;;;;;;;24.70;94.00;;;;;;5104043;28;19912;-52
2021/06/21 03:49:50;;;;;;;;;;;24.60;94.00;;;;;;5104265;28;20193;-53
2021/06/21 03:52:17;;;;;;;;;;;24.60;94.00;;;;;;5104021;28;19908;-53
2021/06/21 03:54:43;;;;;;;;;;;24.60;94.00;;;;;;5104445;28;19909;-53
2021/06/21 03:57:10;;;;;;;;;;;24.60;94.00;;;;;;5104022;28;19949;-53
2021/06/21 03:59:37;;;;;;;;;;;24.60;94.20;;;;;;5104608;28;19916;-55
2021/06/21 04:02:03;;;;;;;;;;;24.60;94.00;;;;;;5104123;28;19908;-56
2021/06/21 04:04:30;;;;;;;;;;;24.60;94.00;;;;;;5104147;28;19946;-53
2021/06/21 04:06:56;;;;;;;;;;;24.60;93.90;;;;;;5103957;28;19935;-53
2021/06/21 04:09:22;;;;;;;;;;;24.60;94.00;;;;;;5104051;28;19908;-57
2021/06/21 04:11:49;;;;;;;;;;;24.60;94.00;;;;;;5103753;28;20253;-52
2021/06/21 04:14:15;;;;;;;;;;;24.60;94.00;;;;;;5105588;28;19909;-52
2021/06/21 04:16:42;;;;;;;;;;;24.50;93.90;;;;;;5107428;28;20105;-61
2021/06/21 04:19:08;;;;;;;;;;;24.50;94.00;;;;;;5107566;28;20255;-54
2021/06/21 04:21:34;;;;;;;;;;;24.50;94.10;;;;;;5107237;28;19908;-57
2021/06/21 04:24:01;;;;;;;;;;;24.60;94.10;;;;;;5106875;28;20092;-56
2021/06/21 04:26:27;;;;;;;;;;;24.50;94.10;;;;;;5107006;28;20205;-53
2021/06/21 04:28:53;;;;;;;;;;;24.50;94.10;;;;;;5107329;28;19912;-53
2021/06/21 04:31:20;;;;;;;;;;;24.50;94.20;;;;;;5106755;28;20244;-50
2021/06/21 04:33:46;;;;;;;;;;;24.50;94.20;;;;;;5106046;28;19949;-52
2021/06/21 04:36:12;;;;;;;;;;;24.50;94.20;;;;;;5106921;28;19908;-53
2021/06/21 04:38:38;;;;;;;;;;;24.50;94.20;;;;;;5106725;28;19935;-52
2021/06/21 04:41:06;;;;;;;;;;;24.50;94.30;;;;;;5106895;28;19908;-56
2021/06/21 04:43:33;;;;;;;;;;;24.50;94.30;;;;;;5106546;28;20238;-62
2021/06/21 04:45:59;;;;;;;;;;;24.50;94.30;;;;;;5106853;28;19908;-53
2021/06/21 04:48:25;;;;;;;;;;;24.50;94.30;;;;;;5106725;28;19949;-53
2021/06/21 04:50:51;;;;;;;;;;;24.50;94.40;;;;;;5106664;28;19908;-52
2021/06/21 04:53:17;;;;;;;;;;;24.60;94.50;;;;;;5106470;28;19912;-56
2021/06/21 04:55:44;;;;;;;;;;;24.50;94.50;;;;;;5106724;28;19955;-55
2021/06/21 04:58:10;;;;;;;;;;;24.60;94.50;;;;;;5106636;28;19904;-54
2021/06/21 05:00:38;;;;;;;;;;;24.60;94.50;;;;;;5106591;28;19919;-53
2021/06/21 05:03:04;;;;;;;;;;;24.60;94.40;;;;;;5106719;28;19904;-52
2021/06/21 05:05:30;;;;;;;;;;;24.60;94.50;;;;;;5107139;28;20181;-50
2021/06/21 05:07:56;;;;;;;;;;;24.60;94.50;;;;;;5106163;28;19912;-53
2021/06/21 05:10:24;;;;;;;;;;;24.60;94.40;;;;;;5106924;28;19908;-52
2021/06/21 05:12:50;;;;;;;;;;;24.60;94.40;;;;;;5106473;28;19908;-53
2021/06/21 05:15:16;;;;;;;;;;;24.60;94.40;;;;;;5106109;28;20100;-52
2021/06/21 05:17:42;;;;;;;;;;;24.50;94.40;;;;;;5106001;28;19935;-55
2021/06/21 05:20:09;;;;;;;;;;;24.60;94.50;;;;;;5106639;28;20230;-56
2021/06/21 05:22:35;;;;;;;;;;;24.60;94.50;;;;;;5105576;28;20211;-53
2021/06/21 05:25:02;;;;;;;;;;;24.50;94.50;;;;;;5105237;28;19915;-54
2021/06/21 05:27:29;;;;;;;;;;;24.50;94.50;;;;;;5105743;28;19962;-56
2021/06/21 05:29:56;;;;;;;;;;;24.60;94.50;;;;;;5106280;28;20211;-54
2021/06/21 05:32:22;;;;;;;;;;;24.50;94.50;;;;;;5106101;28;20193;-51
2021/06/21 05:34:48;;;;;;;;;;;24.60;94.60;;;;;;5106281;28;20050;-53
2021/06/21 05:37:14;;;;;;;;;;;24.50;94.60;;;;;;5105782;28;19943;-58
2021/06/21 05:39:40;;;;;;;;;;;24.60;94.70;;;;;;5106300;28;20025;-52
2021/06/21 05:42:07;;;;;;;;;;;24.60;94.70;;;;;;5105839;28;19939;-57
2021/06/21 05:44:36;;;;;;;;;;;24.50;94.70;;;;;;5105930;28;20227;-54
2021/06/21 05:47:03;;;;;;;;;;;24.50;94.80;;;;;;5105609;28;20188;-54
2021/06/21 05:49:29;;;;;;;;;;;24.50;94.90;;;;;;5105920;28;19912;-55
2021/06/21 05:51:56;;;;;;;;;;;24.50;94.80;;;;;;5105448;28;19904;-56
2021/06/21 05:54:22;;;;;;;;;;;24.50;94.80;;;;;;5105852;28;19912;-55
2021/06/21 05:56:48;;;;;;;;;;;24.60;94.80;;;;;;5105537;28;19911;-52
2021/06/21 05:59:14;;;;;;;;;;;24.60;94.80;;;;;;5105407;28;20140;-55
2021/06/21 06:01:40;;;;;;;;;;;24.50;94.80;;;;;;5105420;28;19904;-57
2021/06/21 06:04:07;;;;;;;;;;;24.50;94.80;;;;;;5105569;28;20089;-55
2021/06/21 06:06:33;;;;;;;;;;;24.50;94.80;;;;;;5105317;28;19908;-52
2021/06/21 06:08:59;;;;;;;;;;;24.50;94.80;;;;;;5105240;28;19912;-53
2021/06/21 06:11:25;;;;;;;;;;;24.50;94.80;;;;;;5105210;28;19904;-55
2021/06/21 06:13:52;;;;;;;;;;;24.60;94.80;;;;;;5105443;28;20193;-55
2021/06/21 06:16:18;;;;;;;;;;;24.50;94.90;;;;;;5104975;28;19911;-54
2021/06/21 06:18:44;;;;;;;;;;;24.50;94.80;;;;;;5105211;28;19912;-55
2021/06/21 06:21:12;;;;;;;;;;;24.50;94.80;;;;;;5105067;28;19911;-53
2021/06/21 06:23:39;;;;;;;;;;;24.60;95.10;;;;;;5104941;28;20133;-61
2021/06/21 06:26:06;;;;;;;;;;;24.50;94.80;;;;;;5104746;28;19942;-58
2021/06/21 06:28:32;;;;;;;;;;;24.50;94.80;;;;;;5104893;28;19920;-54
2021/06/21 06:30:58;;;;;;;;;;;24.50;94.80;;;;;;5104785;28;19911;-57
2021/06/21 06:33:24;;;;;;;;;;;24.50;94.90;;;;;;5105068;28;20192;-54
2021/06/21 06:35:51;;;;;;;;;;;24.50;94.80;;;;;;5104845;28;19904;-55
2021/06/21 06:38:17;;;;;;;;;;;24.50;94.80;;;;;;5104587;28;19911;-55
2021/06/21 06:40:43;;;;;;;;;;;24.50;94.80;;;;;;5104881;28;19904;-54
2021/06/21 06:43:09;;;;;;;;;;;24.50;94.70;;;;;;5104590;28;19904;-53
2021/06/21 06:45:36;;;;;;;;;;;24.50;94.80;;;;;;5104679;28;19953;-52
2021/06/21 06:48:02;;;;;;;;;;;24.50;94.80;;;;;;5104519;28;19916;-54
2021/06/21 06:50:28;;;;;;;;;;;24.50;94.90;;;;;;5105107;28;20069;-52
2021/06/21 06:52:55;;;;;;;;;;;24.50;94.90;;;;;;5104734;28;19904;-56
2021/06/21 06:58:06;;;;;;;;;;;24.50;94.90;;;;;;5104575;28;19912;-56
2021/06/21 07:00:35;;;;;;;;;;;24.50;94.80;;;;;;5104906;28;19912;-53
2021/06/21 07:03:01;;;;;;;;;;;24.50;94.80;;;;;;5104732;28;20116;-53
2021/06/21 07:05:27;;;;;;;;;;;24.50;94.80;;;;;;5105012;28;20097;-54
2021/06/21 07:07:58;;;;;;;;;;;24.50;94.80;;;;;;5104354;28;19908;-51
2021/06/21 07:10:25;;;;;;;;;;;24.50;94.80;;;;;;5104913;28;19916;-55
2021/06/21 07:12:51;;;;;;;;;;;24.50;94.70;;;;;;5104393;28;19904;-55
2021/06/21 07:15:17;;;;;;;;;;;24.50;94.70;;;;;;5104677;28;19916;-54
2021/06/21 07:17:44;;;;;;;;;;;24.50;94.70;;;;;;5104386;28;19904;-55
2021/06/21 07:20:10;;;;;;;;;;;24.50;94.70;;;;;;5104756;28;20155;-58
2021/06/21 07:22:37;;;;;;;;;;;24.50;94.60;;;;;;5104303;28;19904;-54
2021/06/21 07:25:04;;;;;;;;;;;24.50;94.60;;;;;;5104636;28;19912;-56
2021/06/21 07:27:30;;;;;;;;;;;24.50;94.50;;;;;;5104094;28;19916;-61
2021/06/21 07:29:56;;;;;;;;;;;24.50;94.40;;;;;;5104507;28;19987;-54
2021/06/21 07:32:23;;;;;;;;;;;24.50;94.40;;;;;;5104220;28;19910;-53
2021/06/21 07:34:49;;;;;;;;;;;24.50;94.40;;;;;;5104580;28;19912;-55
2021/06/21 07:37:16;;;;;;;;;;;24.50;94.40;;;;;;5104091;28;19905;-55
2021/06/21 07:39:42;;;;;;;;;;;24.50;94.40;;;;;;5104878;28;19971;-55
2021/06/21 07:42:08;;;;;;;;;;;24.40;94.40;;;;;;5104161;28;20212;-55
2021/06/21 07:44:35;;;;;;;;;;;24.40;94.40;;;;;;5103976;28;20216;-56
2021/06/21 07:47:04;;;;;;;;;;;24.40;94.40;;;;;;5104064;28;19916;-55
2021/06/21 07:49:30;;;;;;;;;;;24.40;94.40;;;;;;5106579;28;19916;-56
2021/06/21 07:51:57;;;;;;;;;;;24.40;94.40;;;;;;5107839;28;19911;-54
2021/06/21 07:54:23;;;;;;;;;;;24.40;94.40;;;;;;5108124;28;19912;-52
2021/06/21 07:56:50;;;;;;;;;;;24.40;94.30;;;;;;5107806;28;19904;-54
2021/06/21 07:59:16;;;;;;;;;;;24.40;94.40;;;;;;5107650;28;20108;-58
2021/06/21 08:01:42;;;;;;;;;;;24.40;94.40;;;;;;5107821;28;19911;-54
2021/06/21 08:04:08;;;;;;;;;;;24.40;94.40;;;;;;5107937;28;19965;-56
2021/06/21 08:06:37;;;;;;;;;;;24.40;94.40;;;;;;5107782;28;20144;-55
2021/06/21 08:09:03;;;;;;;;;;;24.40;94.40;;;;;;5107883;28;20100;-57
2021/06/21 08:11:30;;;;;;;;;;;24.40;94.50;;;;;;5107734;28;19904;-55
2021/06/21 08:13:56;;;;;;;;;;;24.40;94.40;;;;;;5107730;28;19950;-55
2021/06/21 08:16:23;;;;;;;;;;;24.30;94.40;;;;;;5107399;28;19911;-56
2021/06/21 08:18:49;;;;;;;;;;;24.30;94.40;;;;;;5107414;28;19912;-57
2021/06/21 08:21:16;;;;;;;;;;;24.30;94.50;;;;;;5107477;28;19945;-54
2021/06/21 08:23:42;;;;;;;;;;;24.30;94.50;;;;;;5107316;28;19908;-54
2021/06/21 08:26:09;;;;;;;;;;;24.30;94.50;;;;;;5107188;28;20050;-56
2021/06/21 08:28:35;;;;;;;;;;;24.30;94.80;;;;;;5107151;28;19926;-54
2021/06/21 08:31:01;;;;;;;;;;;24.30;94.60;;;;;;5107217;28;19910;-57
2021/06/21 08:33:28;;;;;;;;;;;24.30;94.60;;;;;;5107293;28;19904;-56
2021/06/21 08:35:54;;;;;;;;;;;24.30;94.60;;;;;;5107310;28;19904;-54
2021/06/21 08:38:20;;;;;;;;;;;24.30;94.70;;;;;;5107137;28;19904;-54
2021/06/21 08:40:47;;;;;;;;;;;24.30;94.60;;;;;;5107069;28;19911;-54
2021/06/21 08:43:13;;;;;;;;;;;24.30;94.60;;;;;;5107167;28;19904;-57
2021/06/21 08:45:40;;;;;;;;;;;24.20;94.60;;;;;;5106785;28;20096;-55
2021/06/21 08:48:07;;;;;;;;;;;24.30;94.70;;;;;;5106828;28;19908;-57
2021/06/21 08:50:35;;;;;;;;;;;24.20;94.60;;;;;;5107335;28;19958;-53
2021/06/21 08:53:01;;;;;;;;;;;24.30;94.70;;;;;;5106947;28;19904;-57
2021/06/21 08:55:28;;;;;;;;;;;24.30;94.70;;;;;;5107231;28;19912;-57
2021/06/21 08:57:54;;;;;;;;;;;24.30;94.70;;;;;;5106831;28;19967;-54
2021/06/21 09:00:22;;;;;;;;;;;24.20;94.70;;;;;;5105863;28;20077;-56
2021/06/21 09:02:49;;;;;;;;;;;24.20;94.70;;;;;;5106647;28;19924;-58
2021/06/21 09:05:16;;;;;;;;;;;24.20;94.60;;;;;;5107076;28;19912;-55
2021/06/21 09:07:42;;;;;;;;;;;24.30;94.50;;;;;;5106411;28;19987;-59
2021/06/21 09:10:29;;;;;;;;;;;24.30;94.40;;;;;;5106922;28;20149;-55
2021/06/21 09:13:12;;;;;;;;;;;24.30;94.40;;;;;;5106369;28;19940;-57
2021/06/21 09:15:40;;;;;;;;;;;24.20;94.40;;;;;;5106823;28;19912;-57
2021/06/21 09:18:24;;;;;;;;;;;24.30;94.30;;;;;;5106481;28;19904;-59
2021/06/21 09:21:10;;;;;;;;;;;24.30;94.30;;;;;;5106572;28;19912;-57
2021/06/21 09:23:36;;;;;;;;;;;24.30;94.20;;;;;;5104863;28;19919;-57
2021/06/21 09:26:16;;;;;;;;;;;24.30;94.20;;;;;;5106050;28;19904;-57
2021/06/21 09:28:43;;;;;;;;;;;24.30;94.20;;;;;;5106051;28;19982;-61
2021/06/21 09:31:09;;;;;;;;;;;24.30;94.20;;;;;;5106032;28;19912;-57
2021/06/21 09:33:36;;;;;;;;;;;24.30;94.10;;;;;;5106043;28;19919;-57
2021/06/21 09:36:02;;;;;;;;;;;24.30;94.10;;;;;;5105951;28;19911;-57
2021/06/21 09:38:29;;;;;;;;;;;24.30;94.10;;;;;;5105827;28;19904;-58
2021/06/21 09:40:57;;;;;;;;;;;24.30;94.10;;;;;;5105945;28;19911;-56
2021/06/21 09:43:27;;;;;;;;;;;24.30;94.10;;;;;;5105667;28;19908;-54
2021/06/21 09:46:08;;;;;;;;;;;24.30;94.10;;;;;;5106024;28;20250;-58
2021/06/21 09:48:36;;;;;;;;;;;24.30;94.00;;;;;;5105631;28;19916;-56
2021/06/21 09:51:22;;;;;;;;;;;24.30;94.00;;;;;;5105550;28;20151;-55
2021/06/21 09:53:55;;;;;;;;;;;24.30;94.00;;;;;;5105639;28;19919;-55
2021/06/21 09:56:41;;;;;;;;;;;24.30;93.90;;;;;;5105451;28;20146;-56
2021/06/21 09:59:17;;;;;;;;;;;24.30;93.90;;;;;;5105690;28;20092;-56
2021/06/21 10:01:44;;;;;;;;;;;24.30;94.00;;;;;;5105690;28;19973;-57
2021/06/21 10:04:26;;;;;;;;;;;24.30;94.00;;;;;;5105708;28;19916;-55
2021/06/21 10:06:53;;;;;;;;;;;24.30;94.10;;;;;;5105261;28;19979;-53
2021/06/21 10:09:19;;;;;;;;;;;24.30;94.10;;;;;;5105532;28;20208;-58
2021/06/21 10:11:46;;;;;;;;;;;24.30;94.20;;;;;;5105056;28;19904;-57
2021/06/21 10:14:12;;;;;;;;;;;24.30;94.20;;;;;;5105334;28;19916;-55
2021/06/21 10:16:38;;;;;;;;;;;24.30;94.30;;;;;;5105430;28;19911;-57
2021/06/21 10:19:05;;;;;;;;;;;24.30;94.30;;;;;;5105294;28;19912;-56
2021/06/21 10:21:32;;;;;;;;;;;24.30;94.40;;;;;;5105264;28;19981;-55
2021/06/21 10:23:59;;;;;;;;;;;24.30;94.40;;;;;;5105173;28;19912;-59
2021/06/21 10:26:26;;;;;;;;;;;24.30;94.50;;;;;;5104776;28;19912;-57
2021/06/21 10:28:53;;;;;;;;;;;24.30;94.50;;;;;;5104976;28;20096;-56
2021/06/21 10:31:23;;;;;;;;;;;24.30;94.60;;;;;;5104982;28;19904;-59
2021/06/21 10:33:49;;;;;;;;;;;24.30;94.60;;;;;;5105065;28;19908;-59
2021/06/21 10:36:15;;;;;;;;;;;24.30;94.60;;;;;;5104794;28;20010;-58
2021/06/21 10:38:41;;;;;;;;;;;24.30;94.60;;;;;;5104881;28;20131;-58
2021/06/21 10:41:08;;;;;;;;;;;24.30;94.50;;;;;;5104872;28;19940;-59
2021/06/21 10:43:44;;;;;;;;;;;24.30;94.60;;;;;;5104670;28;19908;-56
2021/06/21 10:46:26;;;;;;;;;;;24.30;94.60;;;;;;5105021;28;19908;-61
2021/06/21 10:48:55;;;;;;;;;;;24.30;94.70;;;;;;5104687;28;19912;-55
2021/06/21 10:51:35;;;;;;;;;;;24.30;94.80;;;;;;5104813;28;20196;-55
2021/06/21 10:54:02;;;;;;;;;;;24.30;94.80;;;;;;5104703;28;20120;-56
2021/06/21 10:56:42;;;;;;;;;;;24.30;94.90;;;;;;5104618;28;20249;-55
2021/06/21 10:59:12;;;;;;;;;;;24.30;94.80;;;;;;5104542;28;19908;-54
2021/06/21 11:01:45;;;;;;;;;;;24.30;94.80;;;;;;5104776;28;19908;-54
2021/06/21 11:04:30;;;;;;;;;;;24.30;94.80;;;;;;5104650;28;19912;-53
2021/06/21 11:07:15;;;;;;;;;;;24.30;94.70;;;;;;5104520;28;20311;-57
2021/06/21 11:09:46;;;;;;;;;;;24.30;94.70;;;;;;5104722;28;19939;-57
2021/06/21 11:12:21;;;;;;;;;;;24.40;94.80;;;;;;5104454;28;19912;-57
2021/06/21 11:15:10;;;;;;;;;;;24.30;94.70;;;;;;5104790;28;19912;-55
2021/06/21 11:17:57;;;;;;;;;;;24.30;94.80;;;;;;5104284;28;19946;-57
2021/06/21 11:20:30;;;;;;;;;;;24.30;94.90;;;;;;5104143;28;19908;-58
2021/06/21 11:23:00;;;;;;;;;;;24.40;95.10;;;;;;5104339;28;19931;-60
2021/06/21 11:25:28;;;;;;;;;;;24.40;94.90;;;;;;5108667;28;19908;-58
2021/06/21 11:27:54;;;;;;;;;;;24.40;95.00;;;;;;5108102;28;19922;-54
2021/06/21 11:30:50;;;;;;;;;;;24.50;94.90;;;;;;5108921;28;20235;-56
2021/06/21 11:33:16;;;;;;;;;;;24.60;94.90;;;;;;5099402;28;20212;-57
2021/06/21 11:35:59;;;;;;;;;;;24.70;94.70;;;;;;5108456;28;19904;-54
2021/06/21 11:38:25;;;;;;;;;;;24.80;94.60;;;;;;5108068;28;19904;-57
2021/06/21 11:41:24;;;;;;;;;;;24.90;94.40;;;;;;5108201;28;20211;-56
2021/06/21 11:43:52;;;;;;;;;;;25.00;94.30;;;;;;5085119;28;19912;-56
2021/06/21 11:46:35;;;;;;;;;;;25.00;94.10;;;;;;5108042;28;19926;-55
2021/06/21 11:49:27;;;;;;;;;;;25.00;94.20;;;;;;5108186;28;19983;-55
2021/06/21 11:52:02;;;;;;;;;;;24.90;94.30;;;;;;5105918;28;19949;-54
2021/06/21 11:54:29;;;;;;;;;;;25.00;94.30;;;;;;5108162;28;19912;-57
2021/06/21 11:56:56;;;;;;;;;;;25.10;94.10;;;;;;5107946;28;19904;-62
2021/06/21 11:59:49;;;;;;;;;;;25.20;94.10;;;;;;5108044;28;20207;-57
2021/06/21 12:02:26;;;;;;;;;;;25.20;94.00;;;;;;5105858;28;19926;-56
2021/06/21 12:04:54;;;;;;;;;;;25.30;93.90;;;;;;5108151;28;19920;-57
2021/06/21 12:07:36;;;;;;;;;;;25.30;93.90;;;;;;5107640;28;19912;-57
2021/06/21 12:10:07;;;;;;;;;;;25.30;94.00;;;;;;5108007;28;19912;-56
2021/06/21 12:12:35;;;;;;;;;;;25.30;94.00;;;;;;5107639;28;19942;-56
2021/06/21 12:15:01;;;;;;;;;;;25.30;94.00;;;;;;5107765;28;20212;-56
2021/06/21 12:17:29;;;;;;;;;;;25.40;93.90;;;;;;5107555;28;19928;-60
2021/06/21 12:20:09;;;;;;;;;;;25.50;93.90;;;;;;5107635;28;19919;-58
2021/06/21 12:22:36;;;;;;;;;;;25.50;93.90;;;;;;5107536;28;20185;-56
2021/06/21 12:25:04;;;;;;;;;;;25.50;93.90;;;;;;5107828;28;19918;-55
2021/06/21 12:27:30;;;;;;;;;;;25.50;93.90;;;;;;5107020;28;19953;-57
2021/06/21 12:29:56;;;;;;;;;;;25.50;93.80;;;;;;5107450;28;20211;-53
2021/06/21 12:32:27;;;;;;;;;;;25.50;93.90;;;;;;5107252;28;19911;-54
2021/06/21 12:34:54;;;;;;;;;;;25.60;93.90;;;;;;5107289;28;19918;-56
2021/06/21 12:37:22;;;;;;;;;;;25.50;93.90;;;;;;5107014;28;19904;-54
2021/06/21 12:39:50;;;;;;;;;;;25.60;93.90;;;;;;5106937;28;19943;-55
2021/06/21 12:42:17;;;;;;;;;;;25.50;93.90;;;;;;5107009;28;20218;-57
2021/06/21 12:44:45;;;;;;;;;;;25.50;94.00;;;;;;5106803;28;19912;-56
2021/06/21 12:47:19;;;;;;;;;;;25.60;94.00;;;;;;5106901;28;20108;-56
2021/06/21 12:49:45;;;;;;;;;;;25.60;94.10;;;;;;5107160;28;19912;-59
2021/06/21 12:52:12;;;;;;;;;;;25.60;94.10;;;;;;5106872;28;19910;-55
2021/06/21 12:54:38;;;;;;;;;;;25.60;94.10;;;;;;5107164;28;19916;-56
2021/06/21 12:57:05;;;;;;;;;;;25.60;94.00;;;;;;5106774;28;19926;-55
2021/06/21 12:59:33;;;;;;;;;;;25.70;94.00;;;;;;5106872;28;19938;-57
2021/06/21 13:02:04;;;;;;;;;;;25.70;94.00;;;;;;5106589;28;19910;-55
2021/06/21 13:04:31;;;;;;;;;;;25.70;94.00;;;;;;5106809;28;19916;-58
2021/06/21 13:07:10;;;;;;;;;;;25.70;94.00;;;;;;5106521;28;19916;-54
2021/06/21 13:09:44;;;;;;;;;;;25.80;93.90;;;;;;5106802;28;19951;-55
2021/06/21 13:12:17;;;;;;;;;;;25.80;93.90;;;;;;5106374;28;20284;-55
2021/06/21 13:14:44;;;;;;;;;;;25.90;94.00;;;;;;5106682;28;19912;-55
2021/06/21 13:17:11;;;;;;;;;;;25.90;93.90;;;;;;5106282;28;19905;-57
2021/06/21 13:19:46;;;;;;;;;;;25.90;93.90;;;;;;5106478;28;19916;-55
2021/06/21 13:22:13;;;;;;;;;;;26.00;93.90;;;;;;5106210;28;19904;-54
2021/06/21 13:24:39;;;;;;;;;;;26.00;93.90;;;;;;5106345;28;19981;-55
2021/06/21 13:27:25;;;;;;;;;;;26.00;93.90;;;;;;5105855;28;20161;-57
2021/06/21 13:29:52;;;;;;;;;;;26.00;93.80;;;;;;5105812;28;19912;-55
2021/06/21 13:32:27;;;;;;;;;;;26.00;93.80;;;;;;5106024;28;19904;-55
2021/06/21 13:34:54;;;;;;;;;;;26.10;93.90;;;;;;5106443;28;19938;-55
2021/06/21 13:37:28;;;;;;;;;;;26.10;93.80;;;;;;5105763;28;19905;-54
2021/06/21 13:39:55;;;;;;;;;;;26.10;93.80;;;;;;5106191;28;19919;-54
2021/06/21 13:42:30;;;;;;;;;;;26.10;93.90;;;;;;5105594;28;20013;-58
2021/06/21 13:44:56;;;;;;;;;;;26.10;93.80;;;;;;5106104;28;19916;-58
2021/06/21 13:47:42;;;;;;;;;;;26.10;93.80;;;;;;5104911;28;19908;-58
2021/06/21 13:50:10;;;;;;;;;;;26.10;93.80;;;;;;5106069;28;19919;-55
2021/06/21 13:52:46;;;;;;;;;;;26.10;93.80;;;;;;5105711;28;19904;-54
2021/06/21 13:55:16;;;;;;;;;;;26.10;93.80;;;;;;5105912;28;19934;-54
2021/06/21 13:57:44;;;;;;;;;;;26.10;93.80;;;;;;5105702;28;19926;-61
2021/06/21 14:00:26;;;;;;;;;;;26.20;93.80;;;;;;5106023;28;19928;-59
2021/06/21 14:02:52;;;;;;;;;;;26.20;93.80;;;;;;5105574;28;19912;-58
2021/06/21 14:05:18;;;;;;;;;;;26.30;93.80;;;;;;5104520;28;19947;-56
2021/06/21 14:07:44;;;;;;;;;;;26.20;93.80;;;;;;5105184;28;19908;-60
2021/06/21 14:10:11;;;;;;;;;;;26.30;93.80;;;;;;5105779;28;19919;-53
2021/06/21 14:12:37;;;;;;;;;;;26.30;93.80;;;;;;5105250;28;19904;-54
2021/06/21 14:15:05;;;;;;;;;;;26.30;93.80;;;;;;5105099;28;20109;-63
2021/06/21 14:17:31;;;;;;;;;;;26.30;93.80;;;;;;5105314;28;19904;-58
2021/06/21 14:19:58;;;;;;;;;;;26.30;93.80;;;;;;5105592;28;20101;-58
2021/06/21 14:22:24;;;;;;;;;;;26.30;93.70;;;;;;5105035;28;20033;-55
2021/06/21 14:24:51;;;;;;;;;;;26.30;93.70;;;;;;5105422;28;19908;-56
2021/06/21 14:27:17;;;;;;;;;;;26.30;93.70;;;;;;5104895;28;19916;-59
2021/06/21 14:29:44;;;;;;;;;;;26.30;93.60;;;;;;5105256;28;19919;-57